createdAt,value
2022-09-28T00:04:14.644Z,67.5
2022-09-28T00:14:14.722Z,67.5
2022-09-28T00:24:14.631Z,67.5
2022-09-28T00:34:14.710Z,67.5
2022-09-28T00:44:14.641Z,67.5
2022-09-28T00:54:14.705Z,67.5
2022-09-28T01:04:14.623Z,67.5
2022-09-28T01:14:14.710Z,67.5
2022-09-28T01:24:14.830Z,67.5
2022-09-28T01:34:14.692Z,67.5
2022-09-28T01:44:14.815Z,67.5
2022-09-28T01:54:14.695Z,67.5
2022-09-28T02:04:14.828Z,67.5
2022-09-28T02:14:14.690Z,67
2022-09-28T02:24:17.183Z,67
2022-09-28T02:34:14.682Z,67
2022-09-28T02:44:14.798Z,67
2022-09-28T02:54:18.609Z,67
2022-09-28T03:04:14.804Z,67
2022-09-28T03:14:14.871Z,67
2022-09-28T03:24:14.806Z,67
2022-09-28T03:34:14.869Z,66.5
2022-09-28T03:44:14.786Z,66.5
2022-09-28T03:54:14.870Z,66.5
2022-09-28T04:04:14.990Z,66.5
2022-09-28T04:14:14.863Z,66.5
2022-09-28T04:24:14.980Z,66.5
2022-09-28T04:34:14.850Z,66.5
2022-09-28T04:44:14.988Z,66.5
2022-09-28T04:54:14.854Z,66
2022-09-28T05:04:14.982Z,66
2022-09-28T05:14:14.845Z,66
2022-09-28T05:24:14.964Z,66
2022-09-28T05:34:15.050Z,66
2022-09-28T05:44:15.063Z,64
2022-09-28T05:54:15.097Z,53
2022-09-28T06:04:15.134Z,54.5
2022-09-28T06:14:15.123Z,57
2022-09-28T06:24:14.978Z,58.5
2022-09-28T06:34:15.082Z,59.5
2022-09-28T06:44:15.089Z,60.5
2022-09-28T06:54:15.170Z,56
2022-09-28T07:04:15.158Z,48.5
2022-09-28T07:14:25.764Z,51.5
2022-09-28T07:24:15.164Z,54
2022-09-28T07:34:15.119Z,56
2022-09-28T07:44:15.223Z,57.5
2022-09-28T07:54:15.019Z,58.5
2022-09-28T08:04:15.133Z,59.5
2022-09-28T08:14:15.238Z,60
2022-09-28T08:24:15.150Z,60.5
2022-09-28T08:34:15.223Z,61
2022-09-28T08:44:15.260Z,61
2022-09-28T08:54:15.262Z,65.5
2022-09-28T09:04:15.156Z,65.5
2022-09-28T09:14:15.216Z,65
2022-09-28T09:24:16.051Z,65
2022-09-28T09:34:15.316Z,64
2022-09-28T09:44:15.431Z,64
2022-09-28T09:54:15.217Z,64
2022-09-28T10:04:15.305Z,64
2022-09-28T10:14:15.195Z,63.5
2022-09-28T10:24:15.326Z,64
2022-09-28T10:34:15.300Z,63.5
2022-09-28T10:44:15.376Z,62
2022-09-28T10:54:15.445Z,56.5
2022-09-28T11:04:15.389Z,54
2022-09-28T11:14:15.397Z,52
2022-09-28T11:24:18.796Z,51
2022-09-28T11:34:15.378Z,49
2022-09-28T11:44:15.348Z,50
2022-09-28T11:54:15.420Z,50
2022-09-28T12:04:15.296Z,49.5
2022-09-28T12:14:15.358Z,50
2022-09-28T12:24:15.487Z,52.5
2022-09-28T12:34:15.347Z,51
2022-09-28T12:44:15.468Z,51.5
2022-09-28T12:54:15.683Z,51
2022-09-28T13:04:15.473Z,52
2022-09-28T13:14:15.342Z,52.5
2022-09-28T13:24:31.442Z,50.5
2022-09-28T13:34:15.406Z,52
2022-09-28T13:44:15.494Z,52
2022-09-28T13:54:15.605Z,53.5
2022-09-28T14:04:15.529Z,52
2022-09-28T14:14:15.532Z,53.5
2022-09-28T14:24:15.458Z,54.5
2022-09-28T14:34:15.540Z,55.5
2022-09-28T14:44:15.608Z,56.5
2022-09-28T14:54:15.661Z,53
2022-09-28T15:04:15.790Z,53.5
2022-09-28T15:14:15.637Z,54.5
2022-09-28T15:24:15.571Z,53
2022-09-28T15:34:15.652Z,55
2022-09-28T15:44:15.513Z,55.5
2022-09-28T15:54:17.046Z,55.5
2022-09-28T16:04:15.593Z,55
2022-09-28T16:14:15.750Z,51.5
2022-09-28T16:24:15.817Z,51
2022-09-28T16:34:15.577Z,53
2022-09-28T16:44:15.699Z,55.5
2022-09-28T16:54:15.576Z,56
2022-09-28T17:04:15.721Z,56.5
2022-09-28T17:14:15.572Z,57.5
2022-09-28T17:24:15.690Z,58
2022-09-28T17:34:15.819Z,58.5
2022-09-28T17:44:15.763Z,59
2022-09-28T17:54:16.786Z,59.5
2022-09-28T18:04:27.856Z,60
2022-09-28T18:14:15.800Z,61
2022-09-28T18:24:15.695Z,61.5
2022-09-28T18:34:15.858Z,62
2022-09-28T18:44:15.684Z,62
2022-09-28T18:54:15.774Z,62
2022-09-28T19:04:15.883Z,62.5
2022-09-28T19:14:15.750Z,62.5
2022-09-28T19:24:15.867Z,62.5
2022-09-28T19:34:15.870Z,62.5
2022-09-28T19:44:15.899Z,63
2022-09-28T19:54:15.765Z,63
2022-09-28T20:04:15.823Z,63
2022-09-28T20:14:15.972Z,66
2022-09-28T20:24:15.864Z,66.5
2022-09-28T20:34:15.942Z,67
2022-09-28T20:44:15.968Z,67
2022-09-28T20:54:15.788Z,67
2022-09-28T21:04:15.808Z,67
2022-09-28T21:14:15.988Z,67
2022-09-28T21:24:15.970Z,67
2022-09-28T21:34:15.901Z,67
2022-09-28T21:44:16.047Z,67
2022-09-28T21:54:15.977Z,67.5
2022-09-28T22:04:16.046Z,67.5
2022-09-28T22:14:15.934Z,67.5
2022-09-28T22:24:16.098Z,68
2022-09-28T22:34:15.900Z,68
2022-09-28T22:44:16.052Z,68
2022-09-28T22:54:16.365Z,68
2022-09-28T23:04:16.010Z,68
2022-09-28T23:14:16.260Z,68
2022-09-28T23:24:16.015Z,68
2022-09-28T23:34:16.084Z,68
2022-09-28T23:44:16.002Z,68
2022-09-28T23:54:16.086Z,68.5
